sensor_id;sensor_type;location;lat;lon;timestamp;temperature;humidity
22779;DHT22;11556;51.194;3.800;2023-04-12T00:00:16;9.20;99.90
22779;DHT22;11556;51.194;3.800;2023-04-12T00:02:42;9.10;99.90
22779;DHT22;11556;51.194;3.800;2023-04-12T00:05:09;9.10;99.90
22779;DHT22;11556;51.194;3.800;2023-04-12T00:07:36;9.20;99.90
22779;DHT22;11556;51.194;3.800;2023-04-12T00:10:06;9.00;99.90
22779;DHT22;11556;51.194;3.800;2023-04-12T00:12:32;9.00;99.90
22779;DHT22;11556;51.194;3.800;2023-04-12T00:14:58;9.00;99.90
22779;DHT22;11556;51.194;3.800;2023-04-12T00:17:23;9.00;99.90
22779;DHT22;11556;51.194;3.800;2023-04-12T00:19:49;9.00;99.90
22779;DHT22;11556;51.194;3.800;2023-04-12T00:22:15;9.00;99.90
22779;DHT22;11556;51.194;3.800;2023-04-12T00:24:41;9.00;99.90
22779;DHT22;11556;51.194;3.800;2023-04-12T00:27:07;9.00;99.90
22779;DHT22;11556;51.194;3.800;2023-04-12T00:29:33;9.00;99.90
22779;DHT22;11556;51.194;3.800;2023-04-12T00:31:59;9.00;99.90
22779;DHT22;11556;51.194;3.800;2023-04-12T00:34:26;9.10;99.90
22779;DHT22;11556;51.194;3.800;2023-04-12T00:36:53;9.10;99.90
22779;DHT22;11556;51.194;3.800;2023-04-12T00:39:18;9.10;99.90
22779;DHT22;11556;51.194;3.800;2023-04-12T00:41:44;9.10;99.90
22779;DHT22;11556;51.194;3.800;2023-04-12T00:44:10;9.10;99.90
22779;DHT22;11556;51.194;3.800;2023-04-12T00:46:36;9.20;99.90
22779;DHT22;11556;51.194;3.800;2023-04-12T00:49:02;9.20;99.90
22779;DHT22;11556;51.194;3.800;2023-04-12T00:51:30;9.20;99.90
22779;DHT22;11556;51.194;3.800;2023-04-12T00:53:58;9.20;99.90
22779;DHT22;11556;51.194;3.800;2023-04-12T00:56:25;9.20;99.90
22779;DHT22;11556;51.194;3.800;2023-04-12T00:58:53;9.10;99.90
22779;DHT22;11556;51.194;3.800;2023-04-12T01:01:19;9.10;99.90
22779;DHT22;11556;51.194;3.800;2023-04-12T01:03:46;9.20;99.90
22779;DHT22;11556;51.194;3.800;2023-04-12T01:06:20;9.20;99.90
22779;DHT22;11556;51.194;3.800;2023-04-12T01:08:57;9.30;99.90
22779;DHT22;11556;51.194;3.800;2023-04-12T01:11:30;9.20;99.90
22779;DHT22;11556;51.194;3.800;2023-04-12T01:14:08;9.20;99.90
22779;DHT22;11556;51.194;3.800;2023-04-12T01:16:49;9.20;99.90
22779;DHT22;11556;51.194;3.800;2023-04-12T01:22:22;9.20;99.90
22779;DHT22;11556;51.194;3.800;2023-04-12T01:25:12;9.20;99.90
22779;DHT22;11556;51.194;3.800;2023-04-12T01:27:55;9.20;99.90
22779;DHT22;11556;51.194;3.800;2023-04-12T01:30:22;9.20;99.90
22779;DHT22;11556;51.194;3.800;2023-04-12T01:32:50;9.20;99.90
22779;DHT22;11556;51.194;3.800;2023-04-12T01:35:18;9.20;99.90
22779;DHT22;11556;51.194;3.800;2023-04-12T01:37:45;9.20;99.90
22779;DHT22;11556;51.194;3.800;2023-04-12T01:40:12;9.20;99.90
22779;DHT22;11556;51.194;3.800;2023-04-12T01:42:38;9.20;99.90
22779;DHT22;11556;51.194;3.800;2023-04-12T01:45:06;9.20;99.90
22779;DHT22;11556;51.194;3.800;2023-04-12T01:47:32;9.20;99.90
22779;DHT22;11556;51.194;3.800;2023-04-12T01:50:12;9.20;99.90
22779;DHT22;11556;51.194;3.800;2023-04-12T01:52:44;9.30;99.90
22779;DHT22;11556;51.194;3.800;2023-04-12T01:55:13;9.30;99.90
22779;DHT22;11556;51.194;3.800;2023-04-12T01:57:40;9.40;99.90
22779;DHT22;11556;51.194;3.800;2023-04-12T02:00:09;9.40;99.90
22779;DHT22;11556;51.194;3.800;2023-04-12T02:02:36;9.50;99.90
22779;DHT22;11556;51.194;3.800;2023-04-12T02:05:02;9.40;99.90
22779;DHT22;11556;51.194;3.800;2023-04-12T02:07:29;9.50;99.90
22779;DHT22;11556;51.194;3.800;2023-04-12T02:09:55;9.50;99.90
22779;DHT22;11556;51.194;3.800;2023-04-12T02:12:21;9.50;99.90
22779;DHT22;11556;51.194;3.800;2023-04-12T02:14:47;9.50;99.90
22779;DHT22;11556;51.194;3.800;2023-04-12T02:17:16;9.60;99.90
22779;DHT22;11556;51.194;3.800;2023-04-12T02:19:42;9.60;99.90
22779;DHT22;11556;51.194;3.800;2023-04-12T02:22:08;9.50;99.90
22779;DHT22;11556;51.194;3.800;2023-04-12T02:24:33;9.60;99.90
22779;DHT22;11556;51.194;3.800;2023-04-12T02:26:59;9.60;99.90
22779;DHT22;11556;51.194;3.800;2023-04-12T02:29:25;9.50;99.90
22779;DHT22;11556;51.194;3.800;2023-04-12T02:31:52;9.50;99.90
22779;DHT22;11556;51.194;3.800;2023-04-12T02:34:17;9.60;99.90
22779;DHT22;11556;51.194;3.800;2023-04-12T02:36:47;9.60;99.90
22779;DHT22;11556;51.194;3.800;2023-04-12T02:39:13;9.70;99.90
22779;DHT22;11556;51.194;3.800;2023-04-12T02:41:43;9.80;99.90
22779;DHT22;11556;51.194;3.800;2023-04-12T02:44:08;9.70;99.90
22779;DHT22;11556;51.194;3.800;2023-04-12T02:46:34;9.70;99.90
22779;DHT22;11556;51.194;3.800;2023-04-12T02:48:59;9.80;99.90
22779;DHT22;11556;51.194;3.800;2023-04-12T02:51:25;9.70;99.90
22779;DHT22;11556;51.194;3.800;2023-04-12T02:53:52;9.70;99.90
22779;DHT22;11556;51.194;3.800;2023-04-12T02:56:18;9.70;99.90
22779;DHT22;11556;51.194;3.800;2023-04-12T02:58:46;9.70;99.90
22779;DHT22;11556;51.194;3.800;2023-04-12T03:01:12;9.70;99.90
22779;DHT22;11556;51.194;3.800;2023-04-12T03:03:39;9.90;99.90
22779;DHT22;11556;51.194;3.800;2023-04-12T03:06:05;9.90;99.90
22779;DHT22;11556;51.194;3.800;2023-04-12T03:08:34;9.90;99.90
22779;DHT22;11556;51.194;3.800;2023-04-12T03:11:00;9.90;99.90
22779;DHT22;11556;51.194;3.800;2023-04-12T03:13:26;9.90;99.90
22779;DHT22;11556;51.194;3.800;2023-04-12T03:15:56;9.90;99.90
22779;DHT22;11556;51.194;3.800;2023-04-12T03:18:22;10.00;99.90
22779;DHT22;11556;51.194;3.800;2023-04-12T03:20:48;10.10;99.90
22779;DHT22;11556;51.194;3.800;2023-04-12T03:23:14;10.00;99.90
22779;DHT22;11556;51.194;3.800;2023-04-12T03:25:40;10.00;99.90
22779;DHT22;11556;51.194;3.800;2023-04-12T03:28:06;10.00;99.90
22779;DHT22;11556;51.194;3.800;2023-04-12T03:30:31;10.00;99.90
22779;DHT22;11556;51.194;3.800;2023-04-12T03:32:57;10.10;99.90
22779;DHT22;11556;51.194;3.800;2023-04-12T03:35:22;10.10;99.90
22779;DHT22;11556;51.194;3.800;2023-04-12T03:37:48;10.20;99.90
22779;DHT22;11556;51.194;3.800;2023-04-12T03:40:14;10.20;99.90
22779;DHT22;11556;51.194;3.800;2023-04-12T03:42:39;10.20;99.90
22779;DHT22;11556;51.194;3.800;2023-04-12T03:45:05;10.20;99.90
22779;DHT22;11556;51.194;3.800;2023-04-12T03:47:32;10.20;99.90
22779;DHT22;11556;51.194;3.800;2023-04-12T03:50:03;10.30;99.90
22779;DHT22;11556;51.194;3.800;2023-04-12T03:52:31;10.30;99.90
22779;DHT22;11556;51.194;3.800;2023-04-12T03:54:57;10.10;99.90
22779;DHT22;11556;51.194;3.800;2023-04-12T03:57:22;10.10;99.90
22779;DHT22;11556;51.194;3.800;2023-04-12T03:59:48;10.10;99.90
22779;DHT22;11556;51.194;3.800;2023-04-12T04:02:13;10.10;99.90
22779;DHT22;11556;51.194;3.800;2023-04-12T04:04:39;10.00;99.90
22779;DHT22;11556;51.194;3.800;2023-04-12T04:07:05;10.00;99.90
22779;DHT22;11556;51.194;3.800;2023-04-12T04:09:32;10.00;99.90
22779;DHT22;11556;51.194;3.800;2023-04-12T04:11:58;10.00;99.90
22779;DHT22;11556;51.194;3.800;2023-04-12T04:14:24;10.10;99.90
22779;DHT22;11556;51.194;3.800;2023-04-12T04:16:50;10.10;99.90
22779;DHT22;11556;51.194;3.800;2023-04-12T04:19:15;10.20;99.90
22779;DHT22;11556;51.194;3.800;2023-04-12T04:21:41;10.30;99.90
22779;DHT22;11556;51.194;3.800;2023-04-12T04:24:09;10.30;99.90
22779;DHT22;11556;51.194;3.800;2023-04-12T04:26:35;10.40;99.90
22779;DHT22;11556;51.194;3.800;2023-04-12T04:29:03;10.40;99.90
22779;DHT22;11556;51.194;3.800;2023-04-12T04:31:29;10.40;99.90
22779;DHT22;11556;51.194;3.800;2023-04-12T04:34:02;10.40;99.90
22779;DHT22;11556;51.194;3.800;2023-04-12T04:36:34;10.30;99.90
22779;DHT22;11556;51.194;3.800;2023-04-12T04:39:00;10.40;99.90
22779;DHT22;11556;51.194;3.800;2023-04-12T04:41:26;10.30;99.90
22779;DHT22;11556;51.194;3.800;2023-04-12T04:43:52;10.40;99.90
22779;DHT22;11556;51.194;3.800;2023-04-12T04:46:19;10.40;99.90
22779;DHT22;11556;51.194;3.800;2023-04-12T04:48:48;10.40;99.90
22779;DHT22;11556;51.194;3.800;2023-04-12T04:51:16;10.50;99.90
22779;DHT22;11556;51.194;3.800;2023-04-12T04:53:42;10.50;99.90
22779;DHT22;11556;51.194;3.800;2023-04-12T04:56:08;10.30;99.90
22779;DHT22;11556;51.194;3.800;2023-04-12T04:58:33;10.30;99.90
22779;DHT22;11556;51.194;3.800;2023-04-12T05:01:01;10.20;99.90
22779;DHT22;11556;51.194;3.800;2023-04-12T05:03:26;10.20;99.90
22779;DHT22;11556;51.194;3.800;2023-04-12T05:05:53;10.20;99.90
22779;DHT22;11556;51.194;3.800;2023-04-12T05:08:20;10.20;99.90
22779;DHT22;11556;51.194;3.800;2023-04-12T05:10:50;10.10;99.90
22779;DHT22;11556;51.194;3.800;2023-04-12T05:13:17;10.10;99.90
22779;DHT22;11556;51.194;3.800;2023-04-12T05:15:42;10.10;99.90
22779;DHT22;11556;51.194;3.800;2023-04-12T05:18:08;10.20;99.90
22779;DHT22;11556;51.194;3.800;2023-04-12T05:20:36;10.10;99.90
22779;DHT22;11556;51.194;3.800;2023-04-12T05:23:02;10.10;99.90
22779;DHT22;11556;51.194;3.800;2023-04-12T05:25:28;10.10;99.90
22779;DHT22;11556;51.194;3.800;2023-04-12T05:27:54;10.10;99.90
22779;DHT22;11556;51.194;3.800;2023-04-12T05:30:19;9.90;99.90
22779;DHT22;11556;51.194;3.800;2023-04-12T05:32:45;9.90;99.90
22779;DHT22;11556;51.194;3.800;2023-04-12T05:35:11;10.00;99.90
22779;DHT22;11556;51.194;3.800;2023-04-12T05:37:36;10.00;99.90
22779;DHT22;11556;51.194;3.800;2023-04-12T05:40:02;10.10;99.90
22779;DHT22;11556;51.194;3.800;2023-04-12T05:42:30;10.10;99.90
22779;DHT22;11556;51.194;3.800;2023-04-12T05:44:56;10.20;99.90
22779;DHT22;11556;51.194;3.800;2023-04-12T05:47:22;10.20;99.90
22779;DHT22;11556;51.194;3.800;2023-04-12T05:49:47;10.20;99.90
22779;DHT22;11556;51.194;3.800;2023-04-12T05:52:13;10.10;99.90
22779;DHT22;11556;51.194;3.800;2023-04-12T05:54:39;10.20;99.90
22779;DHT22;11556;51.194;3.800;2023-04-12T05:57:05;10.40;99.90
22779;DHT22;11556;51.194;3.800;2023-04-12T05:59:31;10.30;99.90
22779;DHT22;11556;51.194;3.800;2023-04-12T06:01:57;10.50;99.90
22779;DHT22;11556;51.194;3.800;2023-04-12T06:04:24;10.40;99.90
22779;DHT22;11556;51.194;3.800;2023-04-12T06:06:50;10.50;99.90
22779;DHT22;11556;51.194;3.800;2023-04-12T06:09:16;10.50;99.90
22779;DHT22;11556;51.194;3.800;2023-04-12T06:11:42;10.40;99.90
22779;DHT22;11556;51.194;3.800;2023-04-12T06:14:07;10.50;99.90
22779;DHT22;11556;51.194;3.800;2023-04-12T06:16:33;10.60;99.90
22779;DHT22;11556;51.194;3.800;2023-04-12T06:18:59;10.50;99.90
22779;DHT22;11556;51.194;3.800;2023-04-12T06:21:25;10.70;99.90
22779;DHT22;11556;51.194;3.800;2023-04-12T06:23:51;10.90;99.90
22779;DHT22;11556;51.194;3.800;2023-04-12T06:26:17;11.10;99.90
22779;DHT22;11556;51.194;3.800;2023-04-12T06:28:43;11.60;99.90
22779;DHT22;11556;51.194;3.800;2023-04-12T06:31:08;12.70;99.90
22779;DHT22;11556;51.194;3.800;2023-04-12T06:33:34;13.90;99.90
22779;DHT22;11556;51.194;3.800;2023-04-12T06:36:01;14.70;99.90
22779;DHT22;11556;51.194;3.800;2023-04-12T06:38:26;15.40;99.90
22779;DHT22;11556;51.194;3.800;2023-04-12T06:40:52;15.60;99.90
22779;DHT22;11556;51.194;3.800;2023-04-12T06:43:18;16.20;99.90
22779;DHT22;11556;51.194;3.800;2023-04-12T06:45:44;16.60;99.90
22779;DHT22;11556;51.194;3.800;2023-04-12T06:48:11;16.10;99.90
22779;DHT22;11556;51.194;3.800;2023-04-12T06:50:36;15.90;99.90
22779;DHT22;11556;51.194;3.800;2023-04-12T06:53:02;15.80;99.90
22779;DHT22;11556;51.194;3.800;2023-04-12T06:55:27;15.70;99.90
22779;DHT22;11556;51.194;3.800;2023-04-12T06:57:54;15.80;99.90
22779;DHT22;11556;51.194;3.800;2023-04-12T07:00:20;15.40;99.90
22779;DHT22;11556;51.194;3.800;2023-04-12T07:02:45;15.40;99.90
22779;DHT22;11556;51.194;3.800;2023-04-12T07:05:11;15.80;99.90
22779;DHT22;11556;51.194;3.800;2023-04-12T07:07:37;16.40;99.90
22779;DHT22;11556;51.194;3.800;2023-04-12T07:10:02;17.20;99.90
22779;DHT22;11556;51.194;3.800;2023-04-12T07:12:29;17.60;99.90
22779;DHT22;11556;51.194;3.800;2023-04-12T07:14:54;16.90;99.90
22779;DHT22;11556;51.194;3.800;2023-04-12T07:17:20;16.40;99.90
22779;DHT22;11556;51.194;3.800;2023-04-12T07:19:46;15.60;99.90
22779;DHT22;11556;51.194;3.800;2023-04-12T07:22:13;15.00;99.90
22779;DHT22;11556;51.194;3.800;2023-04-12T07:24:39;14.70;99.90
22779;DHT22;11556;51.194;3.800;2023-04-12T07:27:04;14.40;99.90
22779;DHT22;11556;51.194;3.800;2023-04-12T07:29:30;14.10;99.90
22779;DHT22;11556;51.194;3.800;2023-04-12T07:31:58;13.90;99.90
22779;DHT22;11556;51.194;3.800;2023-04-12T07:34:24;13.80;99.90
22779;DHT22;11556;51.194;3.800;2023-04-12T07:36:50;13.50;99.90
22779;DHT22;11556;51.194;3.800;2023-04-12T07:39:15;13.40;99.90
22779;DHT22;11556;51.194;3.800;2023-04-12T07:41:42;13.10;99.90
22779;DHT22;11556;51.194;3.800;2023-04-12T07:44:10;13.10;99.90
22779;DHT22;11556;51.194;3.800;2023-04-12T07:46:37;13.00;99.90
22779;DHT22;11556;51.194;3.800;2023-04-12T07:49:02;13.00;99.90
22779;DHT22;11556;51.194;3.800;2023-04-12T07:51:28;13.10;99.90
22779;DHT22;11556;51.194;3.800;2023-04-12T07:53:53;13.10;99.90
22779;DHT22;11556;51.194;3.800;2023-04-12T07:56:19;13.20;99.90
22779;DHT22;11556;51.194;3.800;2023-04-12T07:58:45;13.00;99.90
22779;DHT22;11556;51.194;3.800;2023-04-12T08:01:11;13.00;99.90
22779;DHT22;11556;51.194;3.800;2023-04-12T08:03:37;12.80;99.90
22779;DHT22;11556;51.194;3.800;2023-04-12T08:06:03;12.50;99.90
22779;DHT22;11556;51.194;3.800;2023-04-12T08:08:29;12.60;99.90
22779;DHT22;11556;51.194;3.800;2023-04-12T08:10:55;12.60;99.90
22779;DHT22;11556;51.194;3.800;2023-04-12T08:13:21;12.50;99.90
22779;DHT22;11556;51.194;3.800;2023-04-12T08:15:46;12.50;99.90
22779;DHT22;11556;51.194;3.800;2023-04-12T08:18:12;12.50;99.90
22779;DHT22;11556;51.194;3.800;2023-04-12T08:20:38;12.30;99.90
22779;DHT22;11556;51.194;3.800;2023-04-12T08:23:09;12.40;99.90
22779;DHT22;11556;51.194;3.800;2023-04-12T08:25:35;12.40;99.90
22779;DHT22;11556;51.194;3.800;2023-04-12T08:28:02;12.50;99.90
22779;DHT22;11556;51.194;3.800;2023-04-12T08:30:28;12.80;99.90
22779;DHT22;11556;51.194;3.800;2023-04-12T08:32:54;13.30;99.90
22779;DHT22;11556;51.194;3.800;2023-04-12T08:35:20;13.80;99.90
22779;DHT22;11556;51.194;3.800;2023-04-12T08:37:48;14.20;99.90
22779;DHT22;11556;51.194;3.800;2023-04-12T08:40:14;14.50;99.90
22779;DHT22;11556;51.194;3.800;2023-04-12T08:42:40;15.00;99.90
22779;DHT22;11556;51.194;3.800;2023-04-12T08:45:08;16.30;99.90
22779;DHT22;11556;51.194;3.800;2023-04-12T08:47:40;17.90;99.90
22779;DHT22;11556;51.194;3.800;2023-04-12T08:50:07;19.30;99.90
22779;DHT22;11556;51.194;3.800;2023-04-12T08:52:35;20.10;99.90
22779;DHT22;11556;51.194;3.800;2023-04-12T08:55:08;20.70;99.90
22779;DHT22;11556;51.194;3.800;2023-04-12T08:57:35;21.60;99.90
22779;DHT22;11556;51.194;3.800;2023-04-12T09:00:08;21.60;99.20
22779;DHT22;11556;51.194;3.800;2023-04-12T09:02:35;21.00;99.70
22779;DHT22;11556;51.194;3.800;2023-04-12T09:05:01;19.90;99.90
22779;DHT22;11556;51.194;3.800;2023-04-12T09:07:27;18.80;99.90
22779;DHT22;11556;51.194;3.800;2023-04-12T09:09:55;18.40;99.90
22779;DHT22;11556;51.194;3.800;2023-04-12T09:12:21;18.10;99.90
22779;DHT22;11556;51.194;3.800;2023-04-12T09:15:13;17.80;99.90
22779;DHT22;11556;51.194;3.800;2023-04-12T09:17:40;17.30;99.90
22779;DHT22;11556;51.194;3.800;2023-04-12T09:20:21;16.80;99.90
22779;DHT22;11556;51.194;3.800;2023-04-12T09:22:49;16.50;99.90
22779;DHT22;11556;51.194;3.800;2023-04-12T09:25:14;16.20;99.90
22779;DHT22;11556;51.194;3.800;2023-04-12T09:27:48;15.90;99.90
22779;DHT22;11556;51.194;3.800;2023-04-12T09:30:15;15.60;99.90
22779;DHT22;11556;51.194;3.800;2023-04-12T09:32:41;15.50;99.90
22779;DHT22;11556;51.194;3.800;2023-04-12T09:35:07;15.10;99.90
22779;DHT22;11556;51.194;3.800;2023-04-12T09:37:33;15.20;99.90
22779;DHT22;11556;51.194;3.800;2023-04-12T09:40:06;15.30;99.90
22779;DHT22;11556;51.194;3.800;2023-04-12T09:42:35;15.30;99.90
22779;DHT22;11556;51.194;3.800;2023-04-12T09:45:21;15.10;99.90
22779;DHT22;11556;51.194;3.800;2023-04-12T09:47:47;14.80;99.90
22779;DHT22;11556;51.194;3.800;2023-04-12T09:50:23;14.40;99.90
22779;DHT22;11556;51.194;3.800;2023-04-12T09:52:50;14.30;99.90
22779;DHT22;11556;51.194;3.800;2023-04-12T09:55:17;14.00;99.90
22779;DHT22;11556;51.194;3.800;2023-04-12T09:57:44;13.80;99.90
22779;DHT22;11556;51.194;3.800;2023-04-12T10:00:12;13.60;99.90
22779;DHT22;11556;51.194;3.800;2023-04-12T10:02:44;13.70;99.90
22779;DHT22;11556;51.194;3.800;2023-04-12T10:05:10;13.90;99.90
22779;DHT22;11556;51.194;3.800;2023-04-12T10:07:39;14.40;99.90
22779;DHT22;11556;51.194;3.800;2023-04-12T10:10:07;14.90;99.90
22779;DHT22;11556;51.194;3.800;2023-04-12T10:12:35;15.40;99.90
22779;DHT22;11556;51.194;3.800;2023-04-12T10:15:04;16.00;99.90
22779;DHT22;11556;51.194;3.800;2023-04-12T10:17:33;16.40;99.90
22779;DHT22;11556;51.194;3.800;2023-04-12T10:19:59;17.00;99.90
22779;DHT22;11556;51.194;3.800;2023-04-12T10:22:25;17.60;99.90
22779;DHT22;11556;51.194;3.800;2023-04-12T10:24:51;17.50;99.90
22779;DHT22;11556;51.194;3.800;2023-04-12T10:27:26;16.50;99.90
22779;DHT22;11556;51.194;3.800;2023-04-12T10:29:52;15.60;99.90
22779;DHT22;11556;51.194;3.800;2023-04-12T10:32:22;15.40;99.90
22779;DHT22;11556;51.194;3.800;2023-04-12T10:34:52;15.20;99.90
22779;DHT22;11556;51.194;3.800;2023-04-12T10:37:18;15.50;99.90
22779;DHT22;11556;51.194;3.800;2023-04-12T10:39:50;16.30;99.90
22779;DHT22;11556;51.194;3.800;2023-04-12T10:42:24;17.10;99.90
22779;DHT22;11556;51.194;3.800;2023-04-12T10:44:52;17.80;99.90
22779;DHT22;11556;51.194;3.800;2023-04-12T10:50:26;18.30;99.90
22779;DHT22;11556;51.194;3.800;2023-04-12T10:55:43;16.70;99.90
22779;DHT22;11556;51.194;3.800;2023-04-12T10:58:10;15.00;99.90
22779;DHT22;11556;51.194;3.800;2023-04-12T11:03:24;12.10;99.90
22779;DHT22;11556;51.194;3.800;2023-04-12T11:06:04;11.40;99.90
22779;DHT22;11556;51.194;3.800;2023-04-12T11:08:38;10.90;99.90
22779;DHT22;11556;51.194;3.800;2023-04-12T11:11:17;11.20;99.90
22779;DHT22;11556;51.194;3.800;2023-04-12T11:13:43;12.20;99.90
22779;DHT22;11556;51.194;3.800;2023-04-12T11:16:10;13.30;99.90
22779;DHT22;11556;51.194;3.800;2023-04-12T11:18:37;14.40;99.90
22779;DHT22;11556;51.194;3.800;2023-04-12T11:21:04;15.80;99.90
22779;DHT22;11556;51.194;3.800;2023-04-12T11:23:31;16.40;99.90
22779;DHT22;11556;51.194;3.800;2023-04-12T11:25:57;16.40;99.90
22779;DHT22;11556;51.194;3.800;2023-04-12T11:28:23;16.30;99.90
22779;DHT22;11556;51.194;3.800;2023-04-12T11:30:54;16.50;99.90
22779;DHT22;11556;51.194;3.800;2023-04-12T11:33:39;17.40;99.90
22779;DHT22;11556;51.194;3.800;2023-04-12T11:36:10;17.90;99.90
22779;DHT22;11556;51.194;3.800;2023-04-12T11:38:39;17.80;99.90
22779;DHT22;11556;51.194;3.800;2023-04-12T11:41:07;17.70;99.90
22779;DHT22;11556;51.194;3.800;2023-04-12T11:43:37;17.80;99.90
22779;DHT22;11556;51.194;3.800;2023-04-12T11:46:03;18.00;99.90
22779;DHT22;11556;51.194;3.800;2023-04-12T11:48:29;17.60;99.90
22779;DHT22;11556;51.194;3.800;2023-04-12T11:50:55;16.80;99.90
22779;DHT22;11556;51.194;3.800;2023-04-12T11:53:29;16.00;99.90
22779;DHT22;11556;51.194;3.800;2023-04-12T11:55:57;15.80;99.90
22779;DHT22;11556;51.194;3.800;2023-04-12T11:58:25;16.50;99.90
22779;DHT22;11556;51.194;3.800;2023-04-12T12:00:51;17.30;99.90
22779;DHT22;11556;51.194;3.800;2023-04-12T12:03:18;17.90;99.90
22779;DHT22;11556;51.194;3.800;2023-04-12T12:05:44;18.10;99.90
22779;DHT22;11556;51.194;3.800;2023-04-12T12:08:10;17.80;99.90
22779;DHT22;11556;51.194;3.800;2023-04-12T12:10:37;18.20;99.90
22779;DHT22;11556;51.194;3.800;2023-04-12T12:13:11;19.00;99.90
22779;DHT22;11556;51.194;3.800;2023-04-12T12:15:37;19.40;99.90
22779;DHT22;11556;51.194;3.800;2023-04-12T12:18:06;19.60;99.90
22779;DHT22;11556;51.194;3.800;2023-04-12T12:20:37;19.20;99.50
22779;DHT22;11556;51.194;3.800;2023-04-12T12:23:03;18.60;99.90
22779;DHT22;11556;51.194;3.800;2023-04-12T12:25:29;17.70;99.90
22779;DHT22;11556;51.194;3.800;2023-04-12T12:27:56;17.30;99.90
22779;DHT22;11556;51.194;3.800;2023-04-12T12:30:22;17.30;99.90
22779;DHT22;11556;51.194;3.800;2023-04-12T12:32:49;16.60;99.90
22779;DHT22;11556;51.194;3.800;2023-04-12T12:35:16;15.40;99.90
22779;DHT22;11556;51.194;3.800;2023-04-12T12:37:51;14.00;99.90
22779;DHT22;11556;51.194;3.800;2023-04-12T12:40:18;12.90;99.90
22779;DHT22;11556;51.194;3.800;2023-04-12T12:42:54;12.10;99.90
22779;DHT22;11556;51.194;3.800;2023-04-12T12:45:25;11.40;99.90
22779;DHT22;11556;51.194;3.800;2023-04-12T12:47:59;11.10;99.90
22779;DHT22;11556;51.194;3.800;2023-04-12T12:50:26;11.50;99.90
22779;DHT22;11556;51.194;3.800;2023-04-12T12:52:53;12.60;99.90
22779;DHT22;11556;51.194;3.800;2023-04-12T12:55:20;14.50;99.90
22779;DHT22;11556;51.194;3.800;2023-04-12T12:57:47;15.80;99.90
22779;DHT22;11556;51.194;3.800;2023-04-12T13:00:13;16.70;99.90
22779;DHT22;11556;51.194;3.800;2023-04-12T13:02:40;17.30;99.90
22779;DHT22;11556;51.194;3.800;2023-04-12T13:05:06;17.80;99.90
22779;DHT22;11556;51.194;3.800;2023-04-12T13:07:32;18.00;99.90
22779;DHT22;11556;51.194;3.800;2023-04-12T13:09:58;18.80;99.90
22779;DHT22;11556;51.194;3.800;2023-04-12T13:12:24;19.70;99.90
22779;DHT22;11556;51.194;3.800;2023-04-12T13:14:50;19.80;99.90
22779;DHT22;11556;51.194;3.800;2023-04-12T13:17:16;18.90;99.90
22779;DHT22;11556;51.194;3.800;2023-04-12T13:19:46;17.20;99.90
22779;DHT22;11556;51.194;3.800;2023-04-12T13:22:12;16.20;99.90
22779;DHT22;11556;51.194;3.800;2023-04-12T13:24:38;15.90;99.90
22779;DHT22;11556;51.194;3.800;2023-04-12T13:27:04;15.60;99.90
22779;DHT22;11556;51.194;3.800;2023-04-12T13:29:30;15.40;99.90
22779;DHT22;11556;51.194;3.800;2023-04-12T13:31:55;15.40;99.90
22779;DHT22;11556;51.194;3.800;2023-04-12T13:34:21;15.00;99.90
22779;DHT22;11556;51.194;3.800;2023-04-12T13:36:48;14.50;99.90
22779;DHT22;11556;51.194;3.800;2023-04-12T13:39:13;14.50;99.90
22779;DHT22;11556;51.194;3.800;2023-04-12T13:41:39;15.10;99.90
22779;DHT22;11556;51.194;3.800;2023-04-12T13:44:05;16.10;99.90
22779;DHT22;11556;51.194;3.800;2023-04-12T13:46:30;17.10;99.90
22779;DHT22;11556;51.194;3.800;2023-04-12T13:48:56;17.70;99.90
22779;DHT22;11556;51.194;3.800;2023-04-12T13:51:22;18.40;99.90
22779;DHT22;11556;51.194;3.800;2023-04-12T13:53:48;18.90;99.90
22779;DHT22;11556;51.194;3.800;2023-04-12T13:56:14;19.70;99.90
22779;DHT22;11556;51.194;3.800;2023-04-12T13:58:41;19.90;99.90
22779;DHT22;11556;51.194;3.800;2023-04-12T14:01:07;19.40;96.50
22779;DHT22;11556;51.194;3.800;2023-04-12T14:03:34;19.10;96.20
22779;DHT22;11556;51.194;3.800;2023-04-12T14:06:00;19.10;96.20
22779;DHT22;11556;51.194;3.800;2023-04-12T14:08:27;18.80;94.70
22779;DHT22;11556;51.194;3.800;2023-04-12T14:10:53;18.20;97.30
22779;DHT22;11556;51.194;3.800;2023-04-12T14:13:22;18.10;99.10
22779;DHT22;11556;51.194;3.800;2023-04-12T14:15:52;17.80;97.20
22779;DHT22;11556;51.194;3.800;2023-04-12T14:18:19;17.70;98.40
22779;DHT22;11556;51.194;3.800;2023-04-12T14:20:47;17.90;95.30
22779;DHT22;11556;51.194;3.800;2023-04-12T14:23:19;17.90;93.10
22779;DHT22;11556;51.194;3.800;2023-04-12T14:25:47;17.80;93.00
22779;DHT22;11556;51.194;3.800;2023-04-12T14:28:13;17.50;92.90
22779;DHT22;11556;51.194;3.800;2023-04-12T14:30:44;17.50;94.00
22779;DHT22;11556;51.194;3.800;2023-04-12T14:33:10;17.30;93.30
22779;DHT22;11556;51.194;3.800;2023-04-12T14:35:36;17.00;92.10
22779;DHT22;11556;51.194;3.800;2023-04-12T14:38:02;16.30;93.70
22779;DHT22;11556;51.194;3.800;2023-04-12T14:40:29;15.80;94.80
22779;DHT22;11556;51.194;3.800;2023-04-12T14:42:55;15.10;95.80
22779;DHT22;11556;51.194;3.800;2023-04-12T14:45:21;14.50;97.60
22779;DHT22;11556;51.194;3.800;2023-04-12T14:47:46;14.30;97.80
22779;DHT22;11556;51.194;3.800;2023-04-12T14:50:12;14.20;98.20
22779;DHT22;11556;51.194;3.800;2023-04-12T14:52:38;14.20;99.80
22779;DHT22;11556;51.194;3.800;2023-04-12T14:55:04;14.10;99.20
22779;DHT22;11556;51.194;3.800;2023-04-12T14:57:30;14.10;99.90
22779;DHT22;11556;51.194;3.800;2023-04-12T14:59:57;14.60;99.20
22779;DHT22;11556;51.194;3.800;2023-04-12T15:02:22;15.00;97.10
22779;DHT22;11556;51.194;3.800;2023-04-12T15:04:48;15.70;96.50
22779;DHT22;11556;51.194;3.800;2023-04-12T15:07:14;16.10;96.00
22779;DHT22;11556;51.194;3.800;2023-04-12T15:09:40;16.40;94.40
22779;DHT22;11556;51.194;3.800;2023-04-12T15:12:09;16.60;93.60
22779;DHT22;11556;51.194;3.800;2023-04-12T15:14:34;16.50;94.30
22779;DHT22;11556;51.194;3.800;2023-04-12T15:17:00;16.80;93.80
22779;DHT22;11556;51.194;3.800;2023-04-12T15:19:26;16.70;94.10
22779;DHT22;11556;51.194;3.800;2023-04-12T15:21:52;16.60;95.20
22779;DHT22;11556;51.194;3.800;2023-04-12T15:24:20;16.60;95.00
22779;DHT22;11556;51.194;3.800;2023-04-12T15:26:50;16.50;95.70
22779;DHT22;11556;51.194;3.800;2023-04-12T15:29:18;16.60;94.80
22779;DHT22;11556;51.194;3.800;2023-04-12T15:31:44;16.10;95.80
22779;DHT22;11556;51.194;3.800;2023-04-12T15:34:10;15.80;95.90
22779;DHT22;11556;51.194;3.800;2023-04-12T15:36:36;15.90;94.90
22779;DHT22;11556;51.194;3.800;2023-04-12T15:39:02;15.90;94.60
22779;DHT22;11556;51.194;3.800;2023-04-12T15:41:37;15.40;93.00
22779;DHT22;11556;51.194;3.800;2023-04-12T15:44:04;15.10;94.80
22779;DHT22;11556;51.194;3.800;2023-04-12T15:46:31;15.10;95.80